sensor_id;sensor_type;location;lat;lon;timestamp;temperature;humidity
45685;DHT22;46836;48.388;16.210;2023-09-12T00:00:49;19.60;99.90
45685;DHT22;46836;48.388;16.210;2023-09-12T00:03:21;19.60;99.90
45685;DHT22;46836;48.388;16.210;2023-09-12T00:05:56;19.50;99.90
45685;DHT22;46836;48.388;16.210;2023-09-12T00:08:24;19.50;99.90
45685;DHT22;46836;48.388;16.210;2023-09-12T00:11:06;19.40;99.90
45685;DHT22;46836;48.388;16.210;2023-09-12T00:13:38;19.40;99.90
45685;DHT22;46836;48.388;16.210;2023-09-12T00:16:06;19.30;99.90
45685;DHT22;46836;48.388;16.210;2023-09-12T00:18:33;19.20;99.90
45685;DHT22;46836;48.388;16.210;2023-09-12T00:21:01;19.20;99.90
45685;DHT22;46836;48.388;16.210;2023-09-12T00:23:30;19.20;99.90
45685;DHT22;46836;48.388;16.210;2023-09-12T00:25:58;19.20;99.90
45685;DHT22;46836;48.388;16.210;2023-09-12T00:28:25;19.20;99.90
45685;DHT22;46836;48.388;16.210;2023-09-12T00:30:52;19.20;99.90
45685;DHT22;46836;48.388;16.210;2023-09-12T00:33:19;19.10;99.90
45685;DHT22;46836;48.388;16.210;2023-09-12T00:35:47;19.00;99.90
45685;DHT22;46836;48.388;16.210;2023-09-12T00:38:14;18.90;99.90
45685;DHT22;46836;48.388;16.210;2023-09-12T00:40:41;18.90;99.90
45685;DHT22;46836;48.388;16.210;2023-09-12T00:43:08;18.80;99.90
45685;DHT22;46836;48.388;16.210;2023-09-12T00:45:35;18.80;99.90
45685;DHT22;46836;48.388;16.210;2023-09-12T00:48:03;18.80;99.90
45685;DHT22;46836;48.388;16.210;2023-09-12T00:50:32;18.90;99.90
45685;DHT22;46836;48.388;16.210;2023-09-12T00:52:59;18.80;99.90
45685;DHT22;46836;48.388;16.210;2023-09-12T00:55:30;18.80;99.90
45685;DHT22;46836;48.388;16.210;2023-09-12T00:57:58;18.70;99.90
45685;DHT22;46836;48.388;16.210;2023-09-12T01:00:25;18.70;99.90
45685;DHT22;46836;48.388;16.210;2023-09-12T01:02:52;18.70;99.90
45685;DHT22;46836;48.388;16.210;2023-09-12T01:05:22;18.70;99.90
45685;DHT22;46836;48.388;16.210;2023-09-12T01:07:49;18.60;99.90
45685;DHT22;46836;48.388;16.210;2023-09-12T01:10:16;18.50;99.90
45685;DHT22;46836;48.388;16.210;2023-09-12T01:12:44;18.50;99.90
45685;DHT22;46836;48.388;16.210;2023-09-12T01:15:11;18.40;99.90
45685;DHT22;46836;48.388;16.210;2023-09-12T01:17:45;18.40;99.90
45685;DHT22;46836;48.388;16.210;2023-09-12T01:20:27;18.40;99.90
45685;DHT22;46836;48.388;16.210;2023-09-12T01:25:39;18.30;99.90
45685;DHT22;46836;48.388;16.210;2023-09-12T01:28:09;18.30;99.90
45685;DHT22;46836;48.388;16.210;2023-09-12T01:30:39;18.40;99.90
45685;DHT22;46836;48.388;16.210;2023-09-12T01:33:09;18.40;99.90
45685;DHT22;46836;48.388;16.210;2023-09-12T01:35:36;18.40;99.90
45685;DHT22;46836;48.388;16.210;2023-09-12T01:38:03;18.20;99.90
45685;DHT22;46836;48.388;16.210;2023-09-12T01:40:56;18.10;99.90
45685;DHT22;46836;48.388;16.210;2023-09-12T01:43:25;18.00;99.90
45685;DHT22;46836;48.388;16.210;2023-09-12T01:45:55;18.00;99.90
45685;DHT22;46836;48.388;16.210;2023-09-12T01:48:26;17.90;99.90
45685;DHT22;46836;48.388;16.210;2023-09-12T01:50:57;17.90;99.90
45685;DHT22;46836;48.388;16.210;2023-09-12T01:53:25;17.90;99.90
45685;DHT22;46836;48.388;16.210;2023-09-12T01:55:53;17.90;99.90
45685;DHT22;46836;48.388;16.210;2023-09-12T01:58:21;17.90;99.90
45685;DHT22;46836;48.388;16.210;2023-09-12T02:00:48;17.80;99.90
45685;DHT22;46836;48.388;16.210;2023-09-12T02:03:15;17.90;99.90
45685;DHT22;46836;48.388;16.210;2023-09-12T02:05:43;17.90;99.90
45685;DHT22;46836;48.388;16.210;2023-09-12T02:08:11;17.90;99.90
45685;DHT22;46836;48.388;16.210;2023-09-12T02:10:38;17.80;99.90
45685;DHT22;46836;48.388;16.210;2023-09-12T02:13:05;17.70;99.90
45685;DHT22;46836;48.388;16.210;2023-09-12T02:15:32;17.60;99.90
45685;DHT22;46836;48.388;16.210;2023-09-12T02:17:59;17.50;99.90
45685;DHT22;46836;48.388;16.210;2023-09-12T02:20:26;17.50;99.90
45685;DHT22;46836;48.388;16.210;2023-09-12T02:22:53;17.40;99.90
45685;DHT22;46836;48.388;16.210;2023-09-12T02:25:20;17.40;99.90
45685;DHT22;46836;48.388;16.210;2023-09-12T02:27:47;17.40;99.90
45685;DHT22;46836;48.388;16.210;2023-09-12T02:30:15;17.30;99.90
45685;DHT22;46836;48.388;16.210;2023-09-12T02:32:42;17.30;99.90
45685;DHT22;46836;48.388;16.210;2023-09-12T02:35:10;17.30;99.90
45685;DHT22;46836;48.388;16.210;2023-09-12T02:37:37;17.30;99.90
45685;DHT22;46836;48.388;16.210;2023-09-12T02:40:04;17.30;99.90
45685;DHT22;46836;48.388;16.210;2023-09-12T02:42:33;17.40;99.90
45685;DHT22;46836;48.388;16.210;2023-09-12T02:45:00;17.40;99.90
45685;DHT22;46836;48.388;16.210;2023-09-12T02:47:27;17.40;99.90
45685;DHT22;46836;48.388;16.210;2023-09-12T02:49:54;17.40;99.90
45685;DHT22;46836;48.388;16.210;2023-09-12T02:52:21;17.50;99.90
45685;DHT22;46836;48.388;16.210;2023-09-12T02:54:48;17.40;99.90
45685;DHT22;46836;48.388;16.210;2023-09-12T02:57:15;17.30;99.90
45685;DHT22;46836;48.388;16.210;2023-09-12T02:59:42;17.30;99.90
45685;DHT22;46836;48.388;16.210;2023-09-12T03:02:09;17.30;99.90
45685;DHT22;46836;48.388;16.210;2023-09-12T03:04:37;17.20;99.90
45685;DHT22;46836;48.388;16.210;2023-09-12T03:07:04;17.20;99.90
45685;DHT22;46836;48.388;16.210;2023-09-12T03:09:31;17.20;99.90
45685;DHT22;46836;48.388;16.210;2023-09-12T03:12:01;17.20;99.90
45685;DHT22;46836;48.388;16.210;2023-09-12T03:14:31;17.20;99.90
45685;DHT22;46836;48.388;16.210;2023-09-12T03:16:58;17.10;99.90
45685;DHT22;46836;48.388;16.210;2023-09-12T03:19:25;17.10;99.90
45685;DHT22;46836;48.388;16.210;2023-09-12T03:21:52;17.20;99.90
45685;DHT22;46836;48.388;16.210;2023-09-12T03:24:19;17.20;99.90
45685;DHT22;46836;48.388;16.210;2023-09-12T03:26:48;17.20;99.90
45685;DHT22;46836;48.388;16.210;2023-09-12T03:29:15;17.20;99.90
45685;DHT22;46836;48.388;16.210;2023-09-12T03:31:42;17.10;99.90
45685;DHT22;46836;48.388;16.210;2023-09-12T03:34:09;17.00;99.90
45685;DHT22;46836;48.388;16.210;2023-09-12T03:36:36;17.00;99.90
45685;DHT22;46836;48.388;16.210;2023-09-12T03:39:03;16.90;99.90
45685;DHT22;46836;48.388;16.210;2023-09-12T03:41:35;16.90;99.90
45685;DHT22;46836;48.388;16.210;2023-09-12T03:44:02;16.90;99.90
45685;DHT22;46836;48.388;16.210;2023-09-12T03:46:30;17.00;99.90
45685;DHT22;46836;48.388;16.210;2023-09-12T03:48:57;17.10;99.90
45685;DHT22;46836;48.388;16.210;2023-09-12T03:51:24;17.00;99.90
45685;DHT22;46836;48.388;16.210;2023-09-12T03:53:51;16.90;99.90
45685;DHT22;46836;48.388;16.210;2023-09-12T03:56:19;16.80;99.90
45685;DHT22;46836;48.388;16.210;2023-09-12T03:58:47;16.70;99.90
45685;DHT22;46836;48.388;16.210;2023-09-12T04:01:14;16.80;99.90
45685;DHT22;46836;48.388;16.210;2023-09-12T04:03:41;16.80;99.90
45685;DHT22;46836;48.388;16.210;2023-09-12T04:06:09;16.70;99.90
45685;DHT22;46836;48.388;16.210;2023-09-12T04:08:36;16.80;99.90
45685;DHT22;46836;48.388;16.210;2023-09-12T04:11:03;16.80;99.90
45685;DHT22;46836;48.388;16.210;2023-09-12T04:13:30;16.80;99.90
45685;DHT22;46836;48.388;16.210;2023-09-12T04:15:57;16.80;99.90
45685;DHT22;46836;48.388;16.210;2023-09-12T04:18:25;16.80;99.90
45685;DHT22;46836;48.388;16.210;2023-09-12T04:20:53;16.80;99.90
45685;DHT22;46836;48.388;16.210;2023-09-12T04:23:22;16.80;99.90
45685;DHT22;46836;48.388;16.210;2023-09-12T04:25:49;16.80;99.90
45685;DHT22;46836;48.388;16.210;2023-09-12T04:28:16;16.80;99.90
45685;DHT22;46836;48.388;16.210;2023-09-12T04:30:43;16.70;99.90
45685;DHT22;46836;48.388;16.210;2023-09-12T04:33:13;16.80;99.90
45685;DHT22;46836;48.388;16.210;2023-09-12T04:35:40;16.70;99.90
45685;DHT22;46836;48.388;16.210;2023-09-12T04:38:07;16.70;99.90
45685;DHT22;46836;48.388;16.210;2023-09-12T04:40:34;16.60;99.90
45685;DHT22;46836;48.388;16.210;2023-09-12T04:43:01;16.60;99.90
45685;DHT22;46836;48.388;16.210;2023-09-12T04:45:28;16.70;99.90
45685;DHT22;46836;48.388;16.210;2023-09-12T04:47:55;16.70;99.90
45685;DHT22;46836;48.388;16.210;2023-09-12T04:50:22;16.70;99.90
45685;DHT22;46836;48.388;16.210;2023-09-12T04:52:49;16.70;99.90
45685;DHT22;46836;48.388;16.210;2023-09-12T04:55:17;16.60;99.90
45685;DHT22;46836;48.388;16.210;2023-09-12T04:57:44;16.70;99.90
45685;DHT22;46836;48.388;16.210;2023-09-12T05:00:11;16.80;99.90
45685;DHT22;46836;48.388;16.210;2023-09-12T05:02:38;16.80;99.90
45685;DHT22;46836;48.388;16.210;2023-09-12T05:05:06;16.90;99.90
45685;DHT22;46836;48.388;16.210;2023-09-12T05:07:33;16.90;99.90
45685;DHT22;46836;48.388;16.210;2023-09-12T05:10:00;16.90;99.90
45685;DHT22;46836;48.388;16.210;2023-09-12T05:12:27;16.90;99.90
45685;DHT22;46836;48.388;16.210;2023-09-12T05:14:55;16.90;99.90
45685;DHT22;46836;48.388;16.210;2023-09-12T05:17:22;17.00;99.90
45685;DHT22;46836;48.388;16.210;2023-09-12T05:19:49;17.00;99.90
45685;DHT22;46836;48.388;16.210;2023-09-12T05:22:16;17.10;99.90
45685;DHT22;46836;48.388;16.210;2023-09-12T05:24:43;17.20;99.90
45685;DHT22;46836;48.388;16.210;2023-09-12T05:27:11;17.20;99.90
45685;DHT22;46836;48.388;16.210;2023-09-12T05:29:38;17.20;99.90
45685;DHT22;46836;48.388;16.210;2023-09-12T05:32:05;17.20;99.90
45685;DHT22;46836;48.388;16.210;2023-09-12T05:34:33;17.20;99.90
45685;DHT22;46836;48.388;16.210;2023-09-12T05:37:00;17.30;99.90
45685;DHT22;46836;48.388;16.210;2023-09-12T05:39:27;17.30;99.90
45685;DHT22;46836;48.388;16.210;2023-09-12T05:41:54;17.40;99.90
45685;DHT22;46836;48.388;16.210;2023-09-12T05:44:21;17.50;99.90
45685;DHT22;46836;48.388;16.210;2023-09-12T05:46:48;17.50;99.90
45685;DHT22;46836;48.388;16.210;2023-09-12T05:49:15;17.50;99.90
45685;DHT22;46836;48.388;16.210;2023-09-12T05:51:42;17.60;99.90
45685;DHT22;46836;48.388;16.210;2023-09-12T05:54:10;17.70;99.90
45685;DHT22;46836;48.388;16.210;2023-09-12T05:56:37;17.70;99.90
45685;DHT22;46836;48.388;16.210;2023-09-12T05:59:06;17.80;99.90
45685;DHT22;46836;48.388;16.210;2023-09-12T06:01:33;18.00;99.90
45685;DHT22;46836;48.388;16.210;2023-09-12T06:04:00;18.10;99.90
45685;DHT22;46836;48.388;16.210;2023-09-12T06:06:28;18.20;99.90
45685;DHT22;46836;48.388;16.210;2023-09-12T06:08:55;18.30;99.90
45685;DHT22;46836;48.388;16.210;2023-09-12T06:11:22;18.40;99.90
45685;DHT22;46836;48.388;16.210;2023-09-12T06:13:49;18.40;99.90
45685;DHT22;46836;48.388;16.210;2023-09-12T06:16:16;18.50;99.90
45685;DHT22;46836;48.388;16.210;2023-09-12T06:18:44;18.60;99.90
45685;DHT22;46836;48.388;16.210;2023-09-12T06:21:11;18.60;99.90
45685;DHT22;46836;48.388;16.210;2023-09-12T06:23:38;18.70;99.90
45685;DHT22;46836;48.388;16.210;2023-09-12T06:26:05;18.80;99.90
45685;DHT22;46836;48.388;16.210;2023-09-12T06:28:32;18.90;99.90
45685;DHT22;46836;48.388;16.210;2023-09-12T06:31:00;19.00;99.90
45685;DHT22;46836;48.388;16.210;2023-09-12T06:33:27;19.20;99.90
45685;DHT22;46836;48.388;16.210;2023-09-12T06:35:55;19.40;99.90
45685;DHT22;46836;48.388;16.210;2023-09-12T06:38:22;19.60;99.90
45685;DHT22;46836;48.388;16.210;2023-09-12T06:40:50;19.70;99.90
45685;DHT22;46836;48.388;16.210;2023-09-12T06:43:18;19.80;99.90
45685;DHT22;46836;48.388;16.210;2023-09-12T06:45:45;19.90;99.90
45685;DHT22;46836;48.388;16.210;2023-09-12T06:48:13;20.00;99.90
45685;DHT22;46836;48.388;16.210;2023-09-12T06:50:40;20.10;99.90
45685;DHT22;46836;48.388;16.210;2023-09-12T06:53:08;20.20;99.90
45685;DHT22;46836;48.388;16.210;2023-09-12T06:55:37;20.40;99.90
45685;DHT22;46836;48.388;16.210;2023-09-12T06:58:04;20.40;99.90
45685;DHT22;46836;48.388;16.210;2023-09-12T07:00:31;20.60;99.90
45685;DHT22;46836;48.388;16.210;2023-09-12T07:02:58;20.60;99.90
45685;DHT22;46836;48.388;16.210;2023-09-12T07:05:26;20.70;99.90
45685;DHT22;46836;48.388;16.210;2023-09-12T07:07:53;20.80;99.90
45685;DHT22;46836;48.388;16.210;2023-09-12T07:10:20;20.90;99.90
45685;DHT22;46836;48.388;16.210;2023-09-12T07:12:52;21.00;99.90
45685;DHT22;46836;48.388;16.210;2023-09-12T07:15:20;21.10;99.90
45685;DHT22;46836;48.388;16.210;2023-09-12T07:17:48;21.20;99.90
45685;DHT22;46836;48.388;16.210;2023-09-12T07:20:15;21.30;99.90
45685;DHT22;46836;48.388;16.210;2023-09-12T07:22:44;21.40;99.90
45685;DHT22;46836;48.388;16.210;2023-09-12T07:25:15;21.50;99.90
45685;DHT22;46836;48.388;16.210;2023-09-12T07:27:43;21.60;99.90
45685;DHT22;46836;48.388;16.210;2023-09-12T07:30:10;21.70;99.90
45685;DHT22;46836;48.388;16.210;2023-09-12T07:32:37;21.70;99.90
45685;DHT22;46836;48.388;16.210;2023-09-12T07:35:04;21.90;99.90
45685;DHT22;46836;48.388;16.210;2023-09-12T07:37:32;22.00;99.90
45685;DHT22;46836;48.388;16.210;2023-09-12T07:39:59;22.00;99.90
45685;DHT22;46836;48.388;16.210;2023-09-12T07:42:26;22.10;99.90
45685;DHT22;46836;48.388;16.210;2023-09-12T07:44:53;22.10;99.90
45685;DHT22;46836;48.388;16.210;2023-09-12T07:47:20;22.20;99.90
45685;DHT22;46836;48.388;16.210;2023-09-12T07:49:53;22.30;99.90
45685;DHT22;46836;48.388;16.210;2023-09-12T07:52:21;22.40;99.90
45685;DHT22;46836;48.388;16.210;2023-09-12T07:54:52;22.40;99.90
45685;DHT22;46836;48.388;16.210;2023-09-12T07:57:24;22.60;99.90
45685;DHT22;46836;48.388;16.210;2023-09-12T07:59:51;22.70;99.90
45685;DHT22;46836;48.388;16.210;2023-09-12T08:02:18;22.70;99.90
45685;DHT22;46836;48.388;16.210;2023-09-12T08:04:45;22.90;99.90
45685;DHT22;46836;48.388;16.210;2023-09-12T08:07:12;23.10;99.90
45685;DHT22;46836;48.388;16.210;2023-09-12T08:09:51;23.20;99.90
45685;DHT22;46836;48.388;16.210;2023-09-12T08:12:20;23.30;99.90
45685;DHT22;46836;48.388;16.210;2023-09-12T08:14:47;23.40;99.90
45685;DHT22;46836;48.388;16.210;2023-09-12T08:17:16;23.40;99.90
45685;DHT22;46836;48.388;16.210;2023-09-12T08:19:43;23.60;99.90
45685;DHT22;46836;48.388;16.210;2023-09-12T08:22:11;23.70;99.90
45685;DHT22;46836;48.388;16.210;2023-09-12T08:24:39;23.90;99.90
45685;DHT22;46836;48.388;16.210;2023-09-12T08:27:06;24.00;99.90
45685;DHT22;46836;48.388;16.210;2023-09-12T08:29:34;24.00;99.90
45685;DHT22;46836;48.388;16.210;2023-09-12T08:32:01;24.10;99.90
45685;DHT22;46836;48.388;16.210;2023-09-12T08:34:29;24.20;99.90
45685;DHT22;46836;48.388;16.210;2023-09-12T08:36:56;24.30;99.90
45685;DHT22;46836;48.388;16.210;2023-09-12T08:39:26;24.30;99.90
45685;DHT22;46836;48.388;16.210;2023-09-12T08:41:54;24.40;99.90
45685;DHT22;46836;48.388;16.210;2023-09-12T08:44:21;24.50;99.90
45685;DHT22;46836;48.388;16.210;2023-09-12T08:46:49;24.60;99.90
45685;DHT22;46836;48.388;16.210;2023-09-12T08:49:16;24.80;99.90
45685;DHT22;46836;48.388;16.210;2023-09-12T08:51:43;24.90;99.90
45685;DHT22;46836;48.388;16.210;2023-09-12T08:54:11;25.00;99.90
45685;DHT22;46836;48.388;16.210;2023-09-12T08:56:40;25.20;99.90
45685;DHT22;46836;48.388;16.210;2023-09-12T08:59:10;25.30;99.90
45685;DHT22;46836;48.388;16.210;2023-09-12T09:01:38;25.40;99.90
45685;DHT22;46836;48.388;16.210;2023-09-12T09:04:07;25.50;99.90
45685;DHT22;46836;48.388;16.210;2023-09-12T09:06:34;25.70;99.90
45685;DHT22;46836;48.388;16.210;2023-09-12T09:09:05;25.80;99.90
45685;DHT22;46836;48.388;16.210;2023-09-12T09:11:33;25.80;99.90
45685;DHT22;46836;48.388;16.210;2023-09-12T09:14:04;25.90;99.90
45685;DHT22;46836;48.388;16.210;2023-09-12T09:16:31;25.90;99.90
45685;DHT22;46836;48.388;16.210;2023-09-12T09:19:00;26.10;99.90
45685;DHT22;46836;48.388;16.210;2023-09-12T09:21:32;26.20;99.90
45685;DHT22;46836;48.388;16.210;2023-09-12T09:24:02;26.30;99.90
45685;DHT22;46836;48.388;16.210;2023-09-12T09:26:50;26.40;99.90
45685;DHT22;46836;48.388;16.210;2023-09-12T09:29:20;26.50;99.90
45685;DHT22;46836;48.388;16.210;2023-09-12T09:31:49;26.50;99.90
45685;DHT22;46836;48.388;16.210;2023-09-12T09:34:18;26.70;99.90
45685;DHT22;46836;48.388;16.210;2023-09-12T09:36:51;26.80;99.90
45685;DHT22;46836;48.388;16.210;2023-09-12T09:39:21;26.90;99.90
45685;DHT22;46836;48.388;16.210;2023-09-12T09:41:53;27.00;99.90
45685;DHT22;46836;48.388;16.210;2023-09-12T09:44:22;27.10;99.90
45685;DHT22;46836;48.388;16.210;2023-09-12T09:47:00;27.10;99.90
45685;DHT22;46836;48.388;16.210;2023-09-12T09:49:33;27.20;99.90
45685;DHT22;46836;48.388;16.210;2023-09-12T09:52:04;27.40;99.90
45685;DHT22;46836;48.388;16.210;2023-09-12T09:54:31;27.50;99.90
45685;DHT22;46836;48.388;16.210;2023-09-12T09:56:59;27.60;99.90
45685;DHT22;46836;48.388;16.210;2023-09-12T09:59:27;27.70;99.90
45685;DHT22;46836;48.388;16.210;2023-09-12T10:01:59;27.80;99.90
45685;DHT22;46836;48.388;16.210;2023-09-12T10:04:27;27.90;99.90
45685;DHT22;46836;48.388;16.210;2023-09-12T10:06:56;28.10;99.90
45685;DHT22;46836;48.388;16.210;2023-09-12T10:09:27;28.20;99.90
45685;DHT22;46836;48.388;16.210;2023-09-12T10:11:56;28.20;99.90
45685;DHT22;46836;48.388;16.210;2023-09-12T10:14:27;28.30;99.90
45685;DHT22;46836;48.388;16.210;2023-09-12T10:17:01;28.40;99.90
45685;DHT22;46836;48.388;16.210;2023-09-12T10:19:38;28.50;99.90
45685;DHT22;46836;48.388;16.210;2023-09-12T10:22:16;28.60;99.90
45685;DHT22;46836;48.388;16.210;2023-09-12T10:24:46;28.70;99.90
45685;DHT22;46836;48.388;16.210;2023-09-12T10:27:18;28.70;99.90
45685;DHT22;46836;48.388;16.210;2023-09-12T10:29:45;28.90;99.90
45685;DHT22;46836;48.388;16.210;2023-09-12T10:32:15;28.90;99.90
45685;DHT22;46836;48.388;16.210;2023-09-12T10:34:44;28.90;99.90
45685;DHT22;46836;48.388;16.210;2023-09-12T10:37:17;29.00;99.90
45685;DHT22;46836;48.388;16.210;2023-09-12T10:39:47;29.00;99.90
45685;DHT22;46836;48.388;16.210;2023-09-12T10:42:16;29.10;99.90
45685;DHT22;46836;48.388;16.210;2023-09-12T10:44:46;29.20;99.90
45685;DHT22;46836;48.388;16.210;2023-09-12T10:47:14;29.30;99.90
45685;DHT22;46836;48.388;16.210;2023-09-12T10:49:44;29.30;99.90
45685;DHT22;46836;48.388;16.210;2023-09-12T10:52:24;29.40;99.90
45685;DHT22;46836;48.388;16.210;2023-09-12T10:54:52;29.40;99.90
45685;DHT22;46836;48.388;16.210;2023-09-12T10:57:20;29.40;99.90
45685;DHT22;46836;48.388;16.210;2023-09-12T11:02:29;29.60;99.90
45685;DHT22;46836;48.388;16.210;2023-09-12T11:04:57;29.70;99.90
45685;DHT22;46836;48.388;16.210;2023-09-12T11:12:51;29.70;99.90
45685;DHT22;46836;48.388;16.210;2023-09-12T11:15:23;29.80;99.90
45685;DHT22;46836;48.388;16.210;2023-09-12T11:18:05;29.90;99.90
45685;DHT22;46836;48.388;16.210;2023-09-12T11:20:59;30.10;99.90
45685;DHT22;46836;48.388;16.210;2023-09-12T11:23:26;30.10;99.90
45685;DHT22;46836;48.388;16.210;2023-09-12T11:26:07;30.20;99.90
45685;DHT22;46836;48.388;16.210;2023-09-12T11:28:34;30.30;99.90
45685;DHT22;46836;48.388;16.210;2023-09-12T11:31:01;30.30;99.90
45685;DHT22;46836;48.388;16.210;2023-09-12T11:33:29;30.40;99.90
45685;DHT22;46836;48.388;16.210;2023-09-12T11:35:58;30.40;99.90
45685;DHT22;46836;48.388;16.210;2023-09-12T11:38:28;30.40;99.90
45685;DHT22;46836;48.388;16.210;2023-09-12T11:40:57;30.50;99.90
45685;DHT22;46836;48.388;16.210;2023-09-12T11:43:26;30.60;99.90
45685;DHT22;46836;48.388;16.210;2023-09-12T11:45:56;30.80;99.90
45685;DHT22;46836;48.388;16.210;2023-09-12T11:48:23;30.80;99.90
45685;DHT22;46836;48.388;16.210;2023-09-12T11:50:55;30.90;99.90
45685;DHT22;46836;48.388;16.210;2023-09-12T11:53:25;30.90;99.90
45685;DHT22;46836;48.388;16.210;2023-09-12T11:55:56;31.00;99.90
45685;DHT22;46836;48.388;16.210;2023-09-12T11:58:25;31.00;99.90
45685;DHT22;46836;48.388;16.210;2023-09-12T12:00:56;30.90;99.90
45685;DHT22;46836;48.388;16.210;2023-09-12T12:03:26;30.90;99.90
45685;DHT22;46836;48.388;16.210;2023-09-12T12:05:57;30.80;99.90
45685;DHT22;46836;48.388;16.210;2023-09-12T12:08:25;30.90;99.90
45685;DHT22;46836;48.388;16.210;2023-09-12T12:10:59;30.90;99.90
45685;DHT22;46836;48.388;16.210;2023-09-12T12:13:27;31.10;99.90
45685;DHT22;46836;48.388;16.210;2023-09-12T12:15:57;31.10;99.90
45685;DHT22;46836;48.388;16.210;2023-09-12T12:18:25;31.20;99.90
45685;DHT22;46836;48.388;16.210;2023-09-12T12:20:54;31.20;99.90
45685;DHT22;46836;48.388;16.210;2023-09-12T12:23:21;31.20;99.90
45685;DHT22;46836;48.388;16.210;2023-09-12T12:25:48;31.30;99.90
45685;DHT22;46836;48.388;16.210;2023-09-12T12:28:16;31.30;99.90
45685;DHT22;46836;48.388;16.210;2023-09-12T12:30:43;31.30;99.90
45685;DHT22;46836;48.388;16.210;2023-09-12T12:33:12;31.40;99.90
45685;DHT22;46836;48.388;16.210;2023-09-12T12:36:00;31.50;99.90
45685;DHT22;46836;48.388;16.210;2023-09-12T12:38:35;31.50;99.90
45685;DHT22;46836;48.388;16.210;2023-09-12T12:41:06;31.60;99.90
45685;DHT22;46836;48.388;16.210;2023-09-12T12:43:33;31.60;99.90
45685;DHT22;46836;48.388;16.210;2023-09-12T12:46:01;31.60;99.90
45685;DHT22;46836;48.388;16.210;2023-09-12T12:48:33;31.60;99.90
45685;DHT22;46836;48.388;16.210;2023-09-12T12:51:16;31.70;99.90
45685;DHT22;46836;48.388;16.210;2023-09-12T12:53:49;31.80;99.40
45685;DHT22;46836;48.388;16.210;2023-09-12T12:56:26;31.90;99.90
45685;DHT22;46836;48.388;16.210;2023-09-12T12:58:59;32.00;99.90
45685;DHT22;46836;48.388;16.210;2023-09-12T13:01:30;32.00;99.90
45685;DHT22;46836;48.388;16.210;2023-09-12T13:03:58;32.10;99.90
45685;DHT22;46836;48.388;16.210;2023-09-12T13:06:25;32.10;99.80
45685;DHT22;46836;48.388;16.210;2023-09-12T13:08:55;32.20;99.50
45685;DHT22;46836;48.388;16.210;2023-09-12T13:11:24;32.20;98.20
45685;DHT22;46836;48.388;16.210;2023-09-12T13:13:52;32.10;98.10
45685;DHT22;46836;48.388;16.210;2023-09-12T13:16:19;32.00;98.40
45685;DHT22;46836;48.388;16.210;2023-09-12T13:18:46;32.00;98.30
45685;DHT22;46836;48.388;16.210;2023-09-12T13:21:14;32.00;98.00
45685;DHT22;46836;48.388;16.210;2023-09-12T13:23:41;32.00;98.10
45685;DHT22;46836;48.388;16.210;2023-09-12T13:26:09;32.10;98.20
45685;DHT22;46836;48.388;16.210;2023-09-12T13:28:37;32.10;97.70
45685;DHT22;46836;48.388;16.210;2023-09-12T13:31:04;32.20;97.10
45685;DHT22;46836;48.388;16.210;2023-09-12T13:33:31;32.20;97.80
45685;DHT22;46836;48.388;16.210;2023-09-12T13:35:59;32.30;97.70
45685;DHT22;46836;48.388;16.210;2023-09-12T13:38:26;32.40;97.10
45685;DHT22;46836;48.388;16.210;2023-09-12T13:40:53;32.60;96.10
45685;DHT22;46836;48.388;16.210;2023-09-12T13:43:20;32.50;96.60
45685;DHT22;46836;48.388;16.210;2023-09-12T13:45:47;32.50;96.20
45685;DHT22;46836;48.388;16.210;2023-09-12T13:48:14;32.40;96.20
45685;DHT22;46836;48.388;16.210;2023-09-12T13:50:42;32.40;95.40
45685;DHT22;46836;48.388;16.210;2023-09-12T13:53:12;32.50;95.10
45685;DHT22;46836;48.388;16.210;2023-09-12T13:55:39;32.50;94.20
45685;DHT22;46836;48.388;16.210;2023-09-12T13:58:26;32.40;95.00
45685;DHT22;46836;48.388;16.210;2023-09-12T14:03:58;32.50;93.90
45685;DHT22;46836;48.388;16.210;2023-09-12T14:06:26;32.60;95.00
45685;DHT22;46836;48.388;16.210;2023-09-12T14:08:54;32.70;93.90
45685;DHT22;46836;48.388;16.210;2023-09-12T14:11:22;32.70;94.00
45685;DHT22;46836;48.388;16.210;2023-09-12T14:14:01;32.70;93.00
45685;DHT22;46836;48.388;16.210;2023-09-12T14:16:42;32.70;93.50
45685;DHT22;46836;48.388;16.210;2023-09-12T14:19:14;32.70;92.70
45685;DHT22;46836;48.388;16.210;2023-09-12T14:21:43;32.70;92.60
45685;DHT22;46836;48.388;16.210;2023-09-12T14:24:12;32.70;92.50
45685;DHT22;46836;48.388;16.210;2023-09-12T14:26:40;32.70;92.00
45685;DHT22;46836;48.388;16.210;2023-09-12T14:29:08;32.70;91.70
45685;DHT22;46836;48.388;16.210;2023-09-12T14:31:36;32.60;89.50
45685;DHT22;46836;48.388;16.210;2023-09-12T14:34:05;32.60;90.50
45685;DHT22;46836;48.388;16.210;2023-09-12T14:36:35;32.40;91.00
45685;DHT22;46836;48.388;16.210;2023-09-12T14:39:03;32.40;91.30
45685;DHT22;46836;48.388;16.210;2023-09-12T14:41:31;32.40;92.10
45685;DHT22;46836;48.388;16.210;2023-09-12T14:43:59;32.40;92.50
45685;DHT22;46836;48.388;16.210;2023-09-12T14:46:27;32.30;92.80
45685;DHT22;46836;48.388;16.210;2023-09-12T14:48:56;32.10;92.60
45685;DHT22;46836;48.388;16.210;2023-09-12T14:51:28;32.00;92.50
45685;DHT22;46836;48.388;16.210;2023-09-12T14:54:00;31.80;93.00
45685;DHT22;46836;48.388;16.210;2023-09-12T14:56:28;31.70;93.40
45685;DHT22;46836;48.388;16.210;2023-09-12T14:58:55;31.70;93.70
45685;DHT22;46836;48.388;16.210;2023-09-12T15:01:23;31.70;94.00
45685;DHT22;46836;48.388;16.210;2023-09-12T15:03:54;31.60;93.70
45685;DHT22;46836;48.388;16.210;2023-09-12T15:06:23;31.60;93.60
45685;DHT22;46836;48.388;16.210;2023-09-12T15:08:52;31.60;93.70
45685;DHT22;46836;48.388;16.210;2023-09-12T15:11:19;31.70;94.20
45685;DHT22;46836;48.388;16.210;2023-09-12T15:13:47;31.70;94.50
45685;DHT22;46836;48.388;16.210;2023-09-12T15:16:15;31.60;94.10
45685;DHT22;46836;48.388;16.210;2023-09-12T15:18:42;31.60;93.80
45685;DHT22;46836;48.388;16.210;2023-09-12T15:21:10;31.60;94.20
45685;DHT22;46836;48.388;16.210;2023-09-12T15:23:37;31.60;93.90
45685;DHT22;46836;48.388;16.210;2023-09-12T15:26:05;31.50;93.20
45685;DHT22;46836;48.388;16.210;2023-09-12T15:28:32;31.50;93.20
45685;DHT22;46836;48.388;16.210;2023-09-12T15:30:59;31.60;93.50
45685;DHT22;46836;48.388;16.210;2023-09-12T15:33:30;31.60;93.30
45685;DHT22;46836;48.388;16.210;2023-09-12T15:35:57;31.50;92.40
45685;DHT22;46836;48.388;16.210;2023-09-12T15:38:24;31.40;92.30